Parkland Airport

CPL6 · 艾伯塔, 加拿大

罗盘
风向 的 风向 070° Parkland Airport 8/26
风: 4 kt, 2 beaufort

4 kt

1 kt
改变
0 1.000 2.000 3.000 4.000 5.000
OVC 1.900 ft
METAR CZVL 300700Z AUTO 07004KT 9SM -SN OVC019 M17/M18 A3015 RMK SLP272

METAR Parkland Airport - CPL6

Parkland Airport是,加拿大中的小机场。 该机场有一条跑道: 8/26. 该领域的国际民航组织标志是CPL6.

这份报告是针对2022年11月30日 00:00, 当地时间在Edmonton / Villeneuve Airport进行的。

机场观察

风向为070°,速度为4 kt。

可见度为9 mi。

有乌云密布在1.900 ft的高度。 破损或更高的上限为1.900 ft。

当前天气为光 雪。 温度为-17 °C,阵风为-26 °C。 露点为-18 °C,相对湿度为92%。 海平面上的气压为30,15 inHg (QNH)。

白天

今天,太阳从08:27升起,在16:21降落。 这适用于Parkland Airport,世界夏令时可能有所不同。 当地时间与世界标准时间之间的时差为-7 小时。 当前,没有夏令时有效。

公司介绍

在这个机场,你可以找到飞行学校。 本场上唯一已知的公司是Edmonton Flying Club。

体会

到Vliegles.nl去找飞行课程,跳伞和其他飞行体验。 浏览页面,了解Parkland Airport附近所有可用的活动。 你也可以使用搜索功能来寻找你所在地附近的特定飞行课程、跳伞或其他飞行体验。

跑道

Id 标题 侧风 逆风 侧风 %
8/26 080°-260° 4 kt 17 %

逆风成分最大的方向会被突出显示,并用于横风计算。 这并不一定意味着这个方向在使用。

乌云

1.900 ft OVC 乌云密布

温度 & 天气

天气 光 雪
温度 -17 °C
露点 -18 °C
相对湿度 92%
风寒 -26 °C
Kp-index 2 (0-9)

评论

SLP272海平面压力为30,33 inHg (30,33 inHg)

白天

日出
08:28 (7:19)
中午
12:24
日落
16:20

小工具

你想在你的网站上有一个关于Parkland Airport的当前航空天气(METAR)的小部件吗?

显示HTML代码

我们和第三方通过cookies跟踪您在我们网站上的互联网行为。如果你继续,我们认为你同意我们的饼干政策